sensor_id;sensor_type;location;lat;lon;timestamp;P1;durP1;ratioP1;P2;durP2;ratioP2
47760;SDS011;33524;55.434;38.520;2023-07-02T00:00:56;9.75;;;7.68;;
47760;SDS011;33524;55.434;38.520;2023-07-02T00:03:25;9.52;;;7.25;;
47760;SDS011;33524;55.434;38.520;2023-07-02T00:05:56;9.85;;;7.80;;
47760;SDS011;33524;55.434;38.520;2023-07-02T00:08:27;11.18;;;7.28;;
47760;SDS011;33524;55.434;38.520;2023-07-02T00:10:55;10.73;;;7.70;;
47760;SDS011;33524;55.434;38.520;2023-07-02T00:13:24;8.95;;;6.65;;
47760;SDS011;33524;55.434;38.520;2023-07-02T00:15:52;9.85;;;7.12;;
47760;SDS011;33524;55.434;38.520;2023-07-02T00:18:21;10.10;;;7.55;;
47760;SDS011;33524;55.434;38.520;2023-07-02T00:20:49;11.30;;;7.80;;
47760;SDS011;33524;55.434;38.520;2023-07-02T00:23:17;10.10;;;7.97;;
47760;SDS011;33524;55.434;38.520;2023-07-02T00:25:46;10.48;;;8.15;;
47760;SDS011;33524;55.434;38.520;2023-07-02T00:28:16;11.75;;;8.45;;
47760;SDS011;33524;55.434;38.520;2023-07-02T00:30:45;10.77;;;8.13;;
47760;SDS011;33524;55.434;38.520;2023-07-02T00:33:14;9.32;;;6.45;;
47760;SDS011;33524;55.434;38.520;2023-07-02T00:35:43;11.27;;;8.27;;
47760;SDS011;33524;55.434;38.520;2023-07-02T00:38:11;9.57;;;7.82;;
47760;SDS011;33524;55.434;38.520;2023-07-02T00:40:40;11.73;;;8.85;;
47760;SDS011;33524;55.434;38.520;2023-07-02T00:43:10;10.68;;;8.27;;
47760;SDS011;33524;55.434;38.520;2023-07-02T00:45:40;11.38;;;8.50;;
47760;SDS011;33524;55.434;38.520;2023-07-02T00:48:08;10.43;;;7.85;;
47760;SDS011;33524;55.434;38.520;2023-07-02T00:50:36;9.93;;;7.97;;
47760;SDS011;33524;55.434;38.520;2023-07-02T00:53:05;10.05;;;8.32;;
47760;SDS011;33524;55.434;38.520;2023-07-02T00:55:33;13.00;;;7.85;;
47760;SDS011;33524;55.434;38.520;2023-07-02T00:58:01;10.23;;;7.75;;
47760;SDS011;33524;55.434;38.520;2023-07-02T01:00:32;9.68;;;7.78;;
47760;SDS011;33524;55.434;38.520;2023-07-02T01:03:00;11.70;;;8.48;;
47760;SDS011;33524;55.434;38.520;2023-07-02T01:05:30;11.68;;;8.65;;
47760;SDS011;33524;55.434;38.520;2023-07-02T01:08:07;12.48;;;8.02;;
47760;SDS011;33524;55.434;38.520;2023-07-02T01:10:36;9.50;;;7.47;;
47760;SDS011;33524;55.434;38.520;2023-07-02T01:13:06;11.95;;;8.52;;
47760;SDS011;33524;55.434;38.520;2023-07-02T01:15:40;10.38;;;7.70;;
47760;SDS011;33524;55.434;38.520;2023-07-02T01:18:10;11.07;;;8.30;;
47760;SDS011;33524;55.434;38.520;2023-07-02T01:20:42;11.57;;;7.65;;
47760;SDS011;33524;55.434;38.520;2023-07-02T01:23:11;13.23;;;8.68;;
47760;SDS011;33524;55.434;38.520;2023-07-02T01:25:39;11.68;;;7.72;;
47760;SDS011;33524;55.434;38.520;2023-07-02T01:28:08;11.65;;;8.10;;
47760;SDS011;33524;55.434;38.520;2023-07-02T01:30:39;12.10;;;7.65;;
47760;SDS011;33524;55.434;38.520;2023-07-02T01:33:12;10.77;;;7.62;;
47760;SDS011;33524;55.434;38.520;2023-07-02T01:35:40;9.60;;;7.25;;
47760;SDS011;33524;55.434;38.520;2023-07-02T01:38:08;11.50;;;8.02;;
47760;SDS011;33524;55.434;38.520;2023-07-02T01:40:37;11.30;;;8.27;;
47760;SDS011;33524;55.434;38.520;2023-07-02T01:43:05;12.88;;;7.62;;
47760;SDS011;33524;55.434;38.520;2023-07-02T01:45:34;10.70;;;8.10;;
47760;SDS011;33524;55.434;38.520;2023-07-02T01:48:02;8.27;;;6.65;;
47760;SDS011;33524;55.434;38.520;2023-07-02T01:50:30;10.05;;;7.35;;
47760;SDS011;33524;55.434;38.520;2023-07-02T01:52:59;8.55;;;6.45;;
47760;SDS011;33524;55.434;38.520;2023-07-02T01:55:27;10.60;;;7.85;;
47760;SDS011;33524;55.434;38.520;2023-07-02T01:57:55;11.15;;;7.70;;
47760;SDS011;33524;55.434;38.520;2023-07-02T02:00:24;12.15;;;7.78;;
47760;SDS011;33524;55.434;38.520;2023-07-02T02:02:55;10.50;;;7.87;;
47760;SDS011;33524;55.434;38.520;2023-07-02T02:05:23;10.65;;;7.43;;
47760;SDS011;33524;55.434;38.520;2023-07-02T02:07:52;10.20;;;7.47;;
47760;SDS011;33524;55.434;38.520;2023-07-02T02:10:20;9.27;;;7.20;;
47760;SDS011;33524;55.434;38.520;2023-07-02T02:12:48;8.60;;;6.78;;
47760;SDS011;33524;55.434;38.520;2023-07-02T02:15:19;8.13;;;6.72;;
47760;SDS011;33524;55.434;38.520;2023-07-02T02:17:47;9.38;;;7.32;;
47760;SDS011;33524;55.434;38.520;2023-07-02T02:20:16;11.55;;;6.93;;
47760;SDS011;33524;55.434;38.520;2023-07-02T02:22:44;7.95;;;6.18;;
47760;SDS011;33524;55.434;38.520;2023-07-02T02:25:12;11.77;;;7.70;;
47760;SDS011;33524;55.434;38.520;2023-07-02T02:27:40;9.52;;;7.35;;
47760;SDS011;33524;55.434;38.520;2023-07-02T02:30:08;8.80;;;6.80;;
47760;SDS011;33524;55.434;38.520;2023-07-02T02:32:37;11.85;;;6.55;;
47760;SDS011;33524;55.434;38.520;2023-07-02T02:35:06;9.23;;;7.30;;
47760;SDS011;33524;55.434;38.520;2023-07-02T02:37:36;9.10;;;7.45;;
47760;SDS011;33524;55.434;38.520;2023-07-02T02:40:07;11.23;;;7.07;;
47760;SDS011;33524;55.434;38.520;2023-07-02T02:42:43;9.38;;;7.15;;
47760;SDS011;33524;55.434;38.520;2023-07-02T02:45:11;7.80;;;5.55;;
47760;SDS011;33524;55.434;38.520;2023-07-02T02:47:39;7.85;;;5.85;;
47760;SDS011;33524;55.434;38.520;2023-07-02T02:50:11;11.52;;;7.62;;
47760;SDS011;33524;55.434;38.520;2023-07-02T02:52:40;7.78;;;5.75;;
47760;SDS011;33524;55.434;38.520;2023-07-02T02:55:09;8.82;;;6.75;;
47760;SDS011;33524;55.434;38.520;2023-07-02T02:57:38;7.82;;;6.62;;
47760;SDS011;33524;55.434;38.520;2023-07-02T03:00:06;10.52;;;7.40;;
47760;SDS011;33524;55.434;38.520;2023-07-02T03:02:37;7.95;;;5.97;;
47760;SDS011;33524;55.434;38.520;2023-07-02T03:05:07;9.15;;;6.85;;
47760;SDS011;33524;55.434;38.520;2023-07-02T03:07:35;7.32;;;5.57;;
47760;SDS011;33524;55.434;38.520;2023-07-02T03:10:03;10.18;;;4.75;;
47760;SDS011;33524;55.434;38.520;2023-07-02T03:12:33;6.97;;;5.47;;
47760;SDS011;33524;55.434;38.520;2023-07-02T03:15:01;8.23;;;6.25;;
47760;SDS011;33524;55.434;38.520;2023-07-02T03:17:35;9.45;;;6.20;;
47760;SDS011;33524;55.434;38.520;2023-07-02T03:20:04;7.62;;;5.60;;
47760;SDS011;33524;55.434;38.520;2023-07-02T03:22:33;10.60;;;6.03;;
47760;SDS011;33524;55.434;38.520;2023-07-02T03:25:01;10.35;;;6.40;;
47760;SDS011;33524;55.434;38.520;2023-07-02T03:27:35;6.25;;;5.30;;
47760;SDS011;33524;55.434;38.520;2023-07-02T03:30:04;8.73;;;6.10;;
47760;SDS011;33524;55.434;38.520;2023-07-02T03:32:34;8.52;;;6.28;;
47760;SDS011;33524;55.434;38.520;2023-07-02T03:35:03;4.68;;;3.62;;
47760;SDS011;33524;55.434;38.520;2023-07-02T03:37:31;8.82;;;5.22;;
47760;SDS011;33524;55.434;38.520;2023-07-02T03:40:00;7.87;;;5.85;;
47760;SDS011;33524;55.434;38.520;2023-07-02T03:42:29;8.00;;;5.93;;
47760;SDS011;33524;55.434;38.520;2023-07-02T03:45:00;6.80;;;5.12;;
47760;SDS011;33524;55.434;38.520;2023-07-02T03:47:31;7.28;;;6.05;;
47760;SDS011;33524;55.434;38.520;2023-07-02T03:49:59;9.10;;;4.82;;
47760;SDS011;33524;55.434;38.520;2023-07-02T03:52:27;6.90;;;5.28;;
47760;SDS011;33524;55.434;38.520;2023-07-02T03:54:55;7.03;;;5.35;;
47760;SDS011;33524;55.434;38.520;2023-07-02T03:57:23;5.90;;;4.37;;
47760;SDS011;33524;55.434;38.520;2023-07-02T03:59:54;7.65;;;5.72;;
47760;SDS011;33524;55.434;38.520;2023-07-02T04:02:23;7.20;;;4.62;;
47760;SDS011;33524;55.434;38.520;2023-07-02T04:04:51;8.00;;;4.50;;
47760;SDS011;33524;55.434;38.520;2023-07-02T04:07:19;5.43;;;4.25;;
47760;SDS011;33524;55.434;38.520;2023-07-02T04:09:50;5.85;;;4.22;;
47760;SDS011;33524;55.434;38.520;2023-07-02T04:12:18;5.78;;;4.60;;
47760;SDS011;33524;55.434;38.520;2023-07-02T04:14:49;6.85;;;4.10;;
47760;SDS011;33524;55.434;38.520;2023-07-02T04:17:18;9.23;;;4.45;;
47760;SDS011;33524;55.434;38.520;2023-07-02T04:19:49;9.55;;;4.35;;
47760;SDS011;33524;55.434;38.520;2023-07-02T04:22:17;4.93;;;3.70;;
47760;SDS011;33524;55.434;38.520;2023-07-02T04:24:46;6.07;;;4.93;;
47760;SDS011;33524;55.434;38.520;2023-07-02T04:27:20;7.35;;;4.57;;
47760;SDS011;33524;55.434;38.520;2023-07-02T04:30:08;6.65;;;4.18;;
47760;SDS011;33524;55.434;38.520;2023-07-02T04:32:38;6.57;;;4.95;;
47760;SDS011;33524;55.434;38.520;2023-07-02T04:35:10;5.30;;;4.22;;
47760;SDS011;33524;55.434;38.520;2023-07-02T04:37:41;6.53;;;4.22;;
47760;SDS011;33524;55.434;38.520;2023-07-02T04:40:09;5.45;;;3.92;;
47760;SDS011;33524;55.434;38.520;2023-07-02T04:42:38;9.35;;;4.72;;
47760;SDS011;33524;55.434;38.520;2023-07-02T04:45:08;4.57;;;3.20;;
47760;SDS011;33524;55.434;38.520;2023-07-02T04:47:37;4.40;;;2.95;;
47760;SDS011;33524;55.434;38.520;2023-07-02T04:50:05;5.40;;;3.85;;
47760;SDS011;33524;55.434;38.520;2023-07-02T04:52:33;8.30;;;4.32;;
47760;SDS011;33524;55.434;38.520;2023-07-02T04:55:05;7.80;;;5.03;;
47760;SDS011;33524;55.434;38.520;2023-07-02T04:57:33;8.25;;;4.68;;
47760;SDS011;33524;55.434;38.520;2023-07-02T05:00:02;6.15;;;4.07;;
47760;SDS011;33524;55.434;38.520;2023-07-02T05:02:33;9.68;;;4.80;;
47760;SDS011;33524;55.434;38.520;2023-07-02T05:05:01;7.68;;;4.18;;
47760;SDS011;33524;55.434;38.520;2023-07-02T05:07:30;4.37;;;3.35;;
47760;SDS011;33524;55.434;38.520;2023-07-02T05:10:02;5.15;;;3.87;;
47760;SDS011;33524;55.434;38.520;2023-07-02T05:12:32;5.22;;;3.95;;
47760;SDS011;33524;55.434;38.520;2023-07-02T05:15:00;5.80;;;4.43;;
47760;SDS011;33524;55.434;38.520;2023-07-02T05:17:34;6.28;;;4.50;;
47760;SDS011;33524;55.434;38.520;2023-07-02T05:20:04;9.48;;;5.20;;
47760;SDS011;33524;55.434;38.520;2023-07-02T05:22:35;7.22;;;4.72;;
47760;SDS011;33524;55.434;38.520;2023-07-02T05:25:04;9.13;;;5.00;;
47760;SDS011;33524;55.434;38.520;2023-07-02T05:27:32;6.55;;;4.32;;
47760;SDS011;33524;55.434;38.520;2023-07-02T05:30:01;5.65;;;3.92;;
47760;SDS011;33524;55.434;38.520;2023-07-02T05:32:33;5.28;;;3.67;;
47760;SDS011;33524;55.434;38.520;2023-07-02T05:35:01;6.07;;;5.07;;
47760;SDS011;33524;55.434;38.520;2023-07-02T05:37:31;6.65;;;5.43;;
47760;SDS011;33524;55.434;38.520;2023-07-02T05:39:59;6.57;;;4.72;;
47760;SDS011;33524;55.434;38.520;2023-07-02T05:42:30;7.05;;;5.55;;
47760;SDS011;33524;55.434;38.520;2023-07-02T05:44:58;6.57;;;4.07;;
47760;SDS011;33524;55.434;38.520;2023-07-02T05:47:30;5.03;;;3.97;;
47760;SDS011;33524;55.434;38.520;2023-07-02T05:49:59;7.43;;;5.20;;
47760;SDS011;33524;55.434;38.520;2023-07-02T05:52:29;10.40;;;4.35;;
47760;SDS011;33524;55.434;38.520;2023-07-02T05:54:58;4.62;;;3.62;;
47760;SDS011;33524;55.434;38.520;2023-07-02T05:57:26;7.37;;;5.60;;
47760;SDS011;33524;55.434;38.520;2023-07-02T05:59:54;6.90;;;5.50;;
47760;SDS011;33524;55.434;38.520;2023-07-02T06:02:22;5.07;;;3.40;;
47760;SDS011;33524;55.434;38.520;2023-07-02T06:04:50;6.32;;;5.05;;
47760;SDS011;33524;55.434;38.520;2023-07-02T06:07:35;4.30;;;3.28;;
47760;SDS011;33524;55.434;38.520;2023-07-02T06:10:06;7.90;;;5.07;;
47760;SDS011;33524;55.434;38.520;2023-07-02T06:12:35;6.37;;;4.60;;
47760;SDS011;33524;55.434;38.520;2023-07-02T06:15:03;6.55;;;4.43;;
47760;SDS011;33524;55.434;38.520;2023-07-02T06:17:32;6.70;;;4.12;;
47760;SDS011;33524;55.434;38.520;2023-07-02T06:20:03;4.95;;;3.22;;
47760;SDS011;33524;55.434;38.520;2023-07-02T06:22:35;7.50;;;5.00;;
47760;SDS011;33524;55.434;38.520;2023-07-02T06:25:03;5.12;;;3.75;;
47760;SDS011;33524;55.434;38.520;2023-07-02T06:27:32;4.35;;;2.92;;
47760;SDS011;33524;55.434;38.520;2023-07-02T06:30:00;6.93;;;4.00;;
47760;SDS011;33524;55.434;38.520;2023-07-02T06:32:31;6.30;;;5.00;;
47760;SDS011;33524;55.434;38.520;2023-07-02T06:35:00;8.10;;;3.80;;
47760;SDS011;33524;55.434;38.520;2023-07-02T06:37:30;7.90;;;3.47;;
47760;SDS011;33524;55.434;38.520;2023-07-02T06:39:58;12.27;;;4.93;;
47760;SDS011;33524;55.434;38.520;2023-07-02T06:42:30;4.93;;;3.87;;
47760;SDS011;33524;55.434;38.520;2023-07-02T06:44:58;5.40;;;3.40;;
47760;SDS011;33524;55.434;38.520;2023-07-02T06:47:27;6.90;;;3.55;;
47760;SDS011;33524;55.434;38.520;2023-07-02T06:49:55;6.68;;;3.47;;
47760;SDS011;33524;55.434;38.520;2023-07-02T06:52:24;4.87;;;2.92;;
47760;SDS011;33524;55.434;38.520;2023-07-02T06:54:52;7.05;;;4.35;;
47760;SDS011;33524;55.434;38.520;2023-07-02T06:57:20;4.95;;;2.87;;
47760;SDS011;33524;55.434;38.520;2023-07-02T06:59:49;6.55;;;4.12;;
47760;SDS011;33524;55.434;38.520;2023-07-02T07:02:18;5.37;;;3.22;;
47760;SDS011;33524;55.434;38.520;2023-07-02T07:04:46;4.95;;;2.80;;
47760;SDS011;33524;55.434;38.520;2023-07-02T07:07:15;4.30;;;2.75;;
47760;SDS011;33524;55.434;38.520;2023-07-02T07:09:44;5.25;;;3.70;;
47760;SDS011;33524;55.434;38.520;2023-07-02T07:12:12;6.97;;;3.75;;
47760;SDS011;33524;55.434;38.520;2023-07-02T07:14:40;4.53;;;2.67;;
47760;SDS011;33524;55.434;38.520;2023-07-02T07:17:11;7.40;;;4.00;;
47760;SDS011;33524;55.434;38.520;2023-07-02T07:19:40;5.57;;;3.92;;
47760;SDS011;33524;55.434;38.520;2023-07-02T07:22:08;7.95;;;4.75;;
47760;SDS011;33524;55.434;38.520;2023-07-02T07:24:36;5.72;;;2.78;;
47760;SDS011;33524;55.434;38.520;2023-07-02T07:27:05;5.37;;;3.47;;
47760;SDS011;33524;55.434;38.520;2023-07-02T07:29:33;4.45;;;2.87;;
47760;SDS011;33524;55.434;38.520;2023-07-02T07:32:01;7.80;;;3.85;;
47760;SDS011;33524;55.434;38.520;2023-07-02T07:34:30;6.45;;;3.60;;
47760;SDS011;33524;55.434;38.520;2023-07-02T07:36:58;4.35;;;2.72;;
47760;SDS011;33524;55.434;38.520;2023-07-02T07:39:26;5.87;;;3.60;;
47760;SDS011;33524;55.434;38.520;2023-07-02T07:41:54;5.15;;;3.42;;
47760;SDS011;33524;55.434;38.520;2023-07-02T07:44:22;4.12;;;2.97;;
47760;SDS011;33524;55.434;38.520;2023-07-02T07:46:51;6.05;;;3.60;;
47760;SDS011;33524;55.434;38.520;2023-07-02T07:49:18;6.68;;;3.25;;
47760;SDS011;33524;55.434;38.520;2023-07-02T07:51:46;6.75;;;3.70;;
47760;SDS011;33524;55.434;38.520;2023-07-02T07:54:15;7.32;;;3.33;;
47760;SDS011;33524;55.434;38.520;2023-07-02T07:56:43;6.62;;;3.53;;
47760;SDS011;33524;55.434;38.520;2023-07-02T07:59:11;5.20;;;3.83;;
47760;SDS011;33524;55.434;38.520;2023-07-02T08:01:43;9.25;;;4.35;;
47760;SDS011;33524;55.434;38.520;2023-07-02T08:04:15;5.37;;;3.87;;
47760;SDS011;33524;55.434;38.520;2023-07-02T08:06:43;6.70;;;3.55;;
47760;SDS011;33524;55.434;38.520;2023-07-02T08:09:12;8.35;;;3.25;;
47760;SDS011;33524;55.434;38.520;2023-07-02T08:11:40;6.20;;;3.60;;
47760;SDS011;33524;55.434;38.520;2023-07-02T08:14:25;6.32;;;3.80;;
47760;SDS011;33524;55.434;38.520;2023-07-02T08:16:53;7.43;;;4.20;;
47760;SDS011;33524;55.434;38.520;2023-07-02T08:19:22;7.53;;;3.60;;
47760;SDS011;33524;55.434;38.520;2023-07-02T08:21:55;7.37;;;3.70;;
47760;SDS011;33524;55.434;38.520;2023-07-02T08:24:23;5.53;;;3.37;;
47760;SDS011;33524;55.434;38.520;2023-07-02T08:26:51;5.87;;;3.25;;
47760;SDS011;33524;55.434;38.520;2023-07-02T08:29:20;5.37;;;4.00;;
47760;SDS011;33524;55.434;38.520;2023-07-02T08:31:49;4.87;;;2.70;;
47760;SDS011;33524;55.434;38.520;2023-07-02T08:34:18;6.07;;;3.97;;
47760;SDS011;33524;55.434;38.520;2023-07-02T08:36:46;5.45;;;2.92;;
47760;SDS011;33524;55.434;38.520;2023-07-02T08:39:18;4.85;;;3.22;;
47760;SDS011;33524;55.434;38.520;2023-07-02T08:41:48;5.95;;;3.80;;
47760;SDS011;33524;55.434;38.520;2023-07-02T08:44:19;5.70;;;3.08;;
47760;SDS011;33524;55.434;38.520;2023-07-02T08:46:49;5.32;;;3.03;;
47760;SDS011;33524;55.434;38.520;2023-07-02T08:49:22;5.25;;;3.03;;
47760;SDS011;33524;55.434;38.520;2023-07-02T08:51:51;6.47;;;3.58;;
47760;SDS011;33524;55.434;38.520;2023-07-02T08:54:19;5.62;;;3.17;;
47760;SDS011;33524;55.434;38.520;2023-07-02T08:56:48;6.07;;;3.10;;
47760;SDS011;33524;55.434;38.520;2023-07-02T08:59:16;4.65;;;2.62;;
47760;SDS011;33524;55.434;38.520;2023-07-02T09:01:45;5.12;;;3.28;;
47760;SDS011;33524;55.434;38.520;2023-07-02T09:04:18;4.57;;;3.12;;
47760;SDS011;33524;55.434;38.520;2023-07-02T09:06:48;4.70;;;2.80;;
47760;SDS011;33524;55.434;38.520;2023-07-02T09:09:17;6.82;;;3.40;;
47760;SDS011;33524;55.434;38.520;2023-07-02T09:11:49;4.65;;;2.80;;
47760;SDS011;33524;55.434;38.520;2023-07-02T09:14:31;7.87;;;2.65;;
47760;SDS011;33524;55.434;38.520;2023-07-02T09:19:36;8.52;;;4.07;;
47760;SDS011;33524;55.434;38.520;2023-07-02T09:22:17;8.63;;;4.07;;
47760;SDS011;33524;55.434;38.520;2023-07-02T09:24:54;8.45;;;3.72;;
47760;SDS011;33524;55.434;38.520;2023-07-02T09:27:39;5.65;;;3.08;;
47760;SDS011;33524;55.434;38.520;2023-07-02T09:32:47;5.82;;;3.90;;
47760;SDS011;33524;55.434;38.520;2023-07-02T09:35:15;6.57;;;3.40;;
47760;SDS011;33524;55.434;38.520;2023-07-02T09:37:45;5.65;;;3.00;;
47760;SDS011;33524;55.434;38.520;2023-07-02T09:40:14;6.05;;;4.28;;
47760;SDS011;33524;55.434;38.520;2023-07-02T09:42:45;4.07;;;2.95;;
47760;SDS011;33524;55.434;38.520;2023-07-02T09:45:23;6.22;;;3.78;;
47760;SDS011;33524;55.434;38.520;2023-07-02T09:47:53;6.78;;;3.50;;
47760;SDS011;33524;55.434;38.520;2023-07-02T09:50:25;6.20;;;3.67;;
47760;SDS011;33524;55.434;38.520;2023-07-02T09:52:57;4.12;;;2.67;;
47760;SDS011;33524;55.434;38.520;2023-07-02T09:55:26;6.78;;;4.22;;
47760;SDS011;33524;55.434;38.520;2023-07-02T09:57:54;6.25;;;3.67;;
47760;SDS011;33524;55.434;38.520;2023-07-02T10:00:23;5.03;;;3.08;;
47760;SDS011;33524;55.434;38.520;2023-07-02T10:02:52;7.22;;;3.83;;
47760;SDS011;33524;55.434;38.520;2023-07-02T10:05:29;7.47;;;3.70;;
47760;SDS011;33524;55.434;38.520;2023-07-02T10:08:10;6.78;;;3.35;;
47760;SDS011;33524;55.434;38.520;2023-07-02T10:10:45;5.65;;;3.45;;
47760;SDS011;33524;55.434;38.520;2023-07-02T10:13:16;8.05;;;3.53;;
47760;SDS011;33524;55.434;38.520;2023-07-02T10:16:02;8.63;;;4.15;;
47760;SDS011;33524;55.434;38.520;2023-07-02T10:18:32;8.40;;;3.50;;
47760;SDS011;33524;55.434;38.520;2023-07-02T10:21:17;6.12;;;4.35;;
47760;SDS011;33524;55.434;38.520;2023-07-02T10:23:46;7.43;;;5.43;;
47760;SDS011;33524;55.434;38.520;2023-07-02T10:26:16;6.47;;;4.22;;
47760;SDS011;33524;55.434;38.520;2023-07-02T10:29:00;6.03;;;4.30;;
47760;SDS011;33524;55.434;38.520;2023-07-02T10:31:29;6.75;;;3.90;;
47760;SDS011;33524;55.434;38.520;2023-07-02T10:33:58;6.03;;;3.50;;
47760;SDS011;33524;55.434;38.520;2023-07-02T10:36:27;6.30;;;4.05;;
47760;SDS011;33524;55.434;38.520;2023-07-02T10:39:00;6.07;;;3.90;;
47760;SDS011;33524;55.434;38.520;2023-07-02T10:41:33;7.10;;;4.30;;
47760;SDS011;33524;55.434;38.520;2023-07-02T10:44:08;5.82;;;3.78;;
47760;SDS011;33524;55.434;38.520;2023-07-02T10:46:47;8.05;;;4.62;;
47760;SDS011;33524;55.434;38.520;2023-07-02T10:49:17;5.80;;;4.05;;
47760;SDS011;33524;55.434;38.520;2023-07-02T10:51:57;9.55;;;3.87;;
47760;SDS011;33524;55.434;38.520;2023-07-02T10:54:42;6.18;;;4.05;;
47760;SDS011;33524;55.434;38.520;2023-07-02T10:57:13;6.10;;;4.05;;
47760;SDS011;33524;55.434;38.520;2023-07-02T10:59:44;7.57;;;4.43;;
47760;SDS011;33524;55.434;38.520;2023-07-02T11:02:12;7.12;;;3.87;;
47760;SDS011;33524;55.434;38.520;2023-07-02T11:04:40;6.95;;;4.03;;
47760;SDS011;33524;55.434;38.520;2023-07-02T11:07:09;6.60;;;4.47;;
47760;SDS011;33524;55.434;38.520;2023-07-02T11:09:39;7.03;;;4.10;;
47760;SDS011;33524;55.434;38.520;2023-07-02T11:12:07;7.12;;;4.30;;
47760;SDS011;33524;55.434;38.520;2023-07-02T11:14:36;7.75;;;5.07;;
47760;SDS011;33524;55.434;38.520;2023-07-02T11:17:05;6.90;;;4.65;;
47760;SDS011;33524;55.434;38.520;2023-07-02T11:19:37;6.70;;;4.80;;
47760;SDS011;33524;55.434;38.520;2023-07-02T11:22:06;6.93;;;4.47;;
47760;SDS011;33524;55.434;38.520;2023-07-02T11:24:35;7.93;;;5.03;;
47760;SDS011;33524;55.434;38.520;2023-07-02T11:27:04;7.93;;;4.45;;
47760;SDS011;33524;55.434;38.520;2023-07-02T11:29:33;7.37;;;3.87;;
47760;SDS011;33524;55.434;38.520;2023-07-02T11:34:40;4.80;;;2.85;;
47760;SDS011;33524;55.434;38.520;2023-07-02T11:37:08;7.53;;;3.97;;
47760;SDS011;33524;55.434;38.520;2023-07-02T11:39:37;7.07;;;4.50;;
47760;SDS011;33524;55.434;38.520;2023-07-02T11:42:06;6.97;;;4.72;;
47760;SDS011;33524;55.434;38.520;2023-07-02T11:44:34;5.90;;;3.80;;
47760;SDS011;33524;55.434;38.520;2023-07-02T11:47:03;6.40;;;3.97;;
47760;SDS011;33524;55.434;38.520;2023-07-02T11:49:34;6.07;;;3.58;;
47760;SDS011;33524;55.434;38.520;2023-07-02T11:52:03;6.57;;;3.42;;
47760;SDS011;33524;55.434;38.520;2023-07-02T11:54:34;5.75;;;3.75;;
47760;SDS011;33524;55.434;38.520;2023-07-02T11:57:04;5.37;;;3.55;;
47760;SDS011;33524;55.434;38.520;2023-07-02T11:59:33;6.07;;;3.97;;
47760;SDS011;33524;55.434;38.520;2023-07-02T12:02:01;7.55;;;4.12;;
47760;SDS011;33524;55.434;38.520;2023-07-02T12:04:30;6.75;;;3.42;;
47760;SDS011;33524;55.434;38.520;2023-07-02T12:06:59;4.22;;;3.35;;
47760;SDS011;33524;55.434;38.520;2023-07-02T12:09:29;6.55;;;3.42;;
47760;SDS011;33524;55.434;38.520;2023-07-02T12:11:57;5.43;;;4.05;;
47760;SDS011;33524;55.434;38.520;2023-07-02T12:14:26;8.60;;;3.33;;
47760;SDS011;33524;55.434;38.520;2023-07-02T12:16:54;5.07;;;3.20;;
47760;SDS011;33524;55.434;38.520;2023-07-02T12:19:23;7.40;;;3.92;;
47760;SDS011;33524;55.434;38.520;2023-07-02T12:21:51;5.78;;;3.28;;
47760;SDS011;33524;55.434;38.520;2023-07-02T12:24:20;6.87;;;4.15;;
47760;SDS011;33524;55.434;38.520;2023-07-02T12:26:48;7.05;;;4.03;;
47760;SDS011;33524;55.434;38.520;2023-07-02T12:29:16;6.47;;;3.47;;
47760;SDS011;33524;55.434;38.520;2023-07-02T12:31:45;6.15;;;3.53;;
47760;SDS011;33524;55.434;38.520;2023-07-02T12:34:15;5.10;;;3.30;;
47760;SDS011;33524;55.434;38.520;2023-07-02T12:36:53;6.45;;;3.83;;
47760;SDS011;33524;55.434;38.520;2023-07-02T12:39:24;6.45;;;3.33;;
47760;SDS011;33524;55.434;38.520;2023-07-02T12:41:55;7.85;;;3.70;;
47760;SDS011;33524;55.434;38.520;2023-07-02T12:44:28;6.90;;;3.50;;
47760;SDS011;33524;55.434;38.520;2023-07-02T12:46:56;4.43;;;3.20;;
47760;SDS011;33524;55.434;38.520;2023-07-02T12:49:25;3.35;;;2.25;;
47760;SDS011;33524;55.434;38.520;2023-07-02T12:51:54;6.93;;;3.60;;
47760;SDS011;33524;55.434;38.520;2023-07-02T12:54:22;5.70;;;4.03;;
47760;SDS011;33524;55.434;38.520;2023-07-02T12:56:50;5.97;;;3.75;;
47760;SDS011;33524;55.434;38.520;2023-07-02T12:59:19;8.23;;;3.95;;
47760;SDS011;33524;55.434;38.520;2023-07-02T13:01:48;8.02;;;4.18;;
47760;SDS011;33524;55.434;38.520;2023-07-02T13:04:16;8.40;;;4.10;;
47760;SDS011;33524;55.434;38.520;2023-07-02T13:06:45;5.57;;;3.87;;
47760;SDS011;33524;55.434;38.520;2023-07-02T13:09:14;5.40;;;3.10;;
47760;SDS011;33524;55.434;38.520;2023-07-02T13:11:42;5.62;;;4.00;;
47760;SDS011;33524;55.434;38.520;2023-07-02T13:14:10;5.97;;;3.10;;
47760;SDS011;33524;55.434;38.520;2023-07-02T13:16:38;6.22;;;3.00;;
47760;SDS011;33524;55.434;38.520;2023-07-02T13:19:07;4.55;;;3.03;;
47760;SDS011;33524;55.434;38.520;2023-07-02T13:21:35;6.35;;;3.67;;
47760;SDS011;33524;55.434;38.520;2023-07-02T13:24:03;6.35;;;4.00;;
47760;SDS011;33524;55.434;38.520;2023-07-02T13:26:32;8.32;;;3.53;;
47760;SDS011;33524;55.434;38.520;2023-07-02T13:29:00;5.45;;;3.00;;
47760;SDS011;33524;55.434;38.520;2023-07-02T13:31:28;5.47;;;3.40;;
47760;SDS011;33524;55.434;38.520;2023-07-02T13:33:57;4.50;;;3.03;;
47760;SDS011;33524;55.434;38.520;2023-07-02T13:36:26;6.22;;;3.70;;
47760;SDS011;33524;55.434;38.520;2023-07-02T13:38:56;5.30;;;3.55;;
47760;SDS011;33524;55.434;38.520;2023-07-02T13:41:28;5.78;;;3.37;;
47760;SDS011;33524;55.434;38.520;2023-07-02T13:43:58;12.13;;;3.17;;
47760;SDS011;33524;55.434;38.520;2023-07-02T13:46:26;7.00;;;3.75;;
47760;SDS011;33524;55.434;38.520;2023-07-02T13:48:58;6.72;;;3.72;;
47760;SDS011;33524;55.434;38.520;2023-07-02T13:51:26;5.30;;;3.27;;
47760;SDS011;33524;55.434;38.520;2023-07-02T13:53:55;5.37;;;3.47;;
47760;SDS011;33524;55.434;38.520;2023-07-02T13:56:24;4.03;;;3.03;;
47760;SDS011;33524;55.434;38.520;2023-07-02T14:03:53;6.97;;;3.03;;
47760;SDS011;33524;55.434;38.520;2023-07-02T14:06:21;5.10;;;3.17;;
47760;SDS011;33524;55.434;38.520;2023-07-02T14:08:50;5.30;;;3.92;;
47760;SDS011;33524;55.434;38.520;2023-07-02T14:11:19;4.55;;;2.95;;
47760;SDS011;33524;55.434;38.520;2023-07-02T14:13:48;7.95;;;2.92;;
47760;SDS011;33524;55.434;38.520;2023-07-02T14:16:16;6.68;;;3.47;;
47760;SDS011;33524;55.434;38.520;2023-07-02T14:18:45;7.55;;;3.45;;
47760;SDS011;33524;55.434;38.520;2023-07-02T14:21:13;7.03;;;2.83;;
47760;SDS011;33524;55.434;38.520;2023-07-02T14:23:42;8.60;;;3.15;;
47760;SDS011;33524;55.434;38.520;2023-07-02T14:26:12;5.07;;;2.70;;
47760;SDS011;33524;55.434;38.520;2023-07-02T14:28:40;4.87;;;2.83;;
47760;SDS011;33524;55.434;38.520;2023-07-02T14:31:08;4.97;;;2.55;;
47760;SDS011;33524;55.434;38.520;2023-07-02T14:33:37;6.53;;;2.95;;
47760;SDS011;33524;55.434;38.520;2023-07-02T14:36:06;6.37;;;3.05;;
47760;SDS011;33524;55.434;38.520;2023-07-02T14:38:35;6.95;;;3.35;;
47760;SDS011;33524;55.434;38.520;2023-07-02T14:41:03;6.65;;;3.40;;
47760;SDS011;33524;55.434;38.520;2023-07-02T14:43:32;4.93;;;3.37;;
47760;SDS011;33524;55.434;38.520;2023-07-02T14:46:01;5.82;;;3.17;;
47760;SDS011;33524;55.434;38.520;2023-07-02T14:48:31;6.53;;;3.20;;
47760;SDS011;33524;55.434;38.520;2023-07-02T14:51:00;7.95;;;2.70;;
47760;SDS011;33524;55.434;38.520;2023-07-02T14:53:31;6.47;;;3.85;;
47760;SDS011;33524;55.434;38.520;2023-07-02T14:56:00;10.27;;;3.37;;
47760;SDS011;33524;55.434;38.520;2023-07-02T14:58:30;5.82;;;3.58;;
47760;SDS011;33524;55.434;38.520;2023-07-02T15:00:59;4.70;;;2.83;;